Terminal Aerodrome Forecast
Issued by NWS Sioux Falls, SD

Home | Current Version | Previous Version | Text Only | Print | Product List | Glossary On
Versions: 1 2 3 4 5 6 7 8 9 10 11 12 13
294
FTUS43 KFSD 232340
TAFHON
TAF
KHON 232340Z 2400/2424 18006KT P6SM SCT200
     FM241000 25010KT P6SM BKN150
     FM241400 30011KT P6SM BKN100
     FM241600 31017G25KT P6SM BKN100
     FM241700 31021G29KT P6SM SCT120
     FM241900 32024G35KT P6SM FEW150
     FM242200 32021G29KT P6SM SKC=

USA.gov is the U.S. government's official web portal to all federal, state and local government web resources and services.